sensor_id;sensor_type;location;lat;lon;timestamp;P1;durP1;ratioP1;P2;durP2;ratioP2
19804;SDS011;10062;51.052;13.756;2022-07-18T00:01:08;6.03;;;2.03;;
19804;SDS011;10062;51.052;13.756;2022-07-18T00:03:40;9.43;;;2.33;;
19804;SDS011;10062;51.052;13.756;2022-07-18T00:06:12;9.60;;;2.17;;
19804;SDS011;10062;51.052;13.756;2022-07-18T00:08:43;6.30;;;2.27;;
19804;SDS011;10062;51.052;13.756;2022-07-18T00:11:15;4.53;;;1.60;;
19804;SDS011;10062;51.052;13.756;2022-07-18T00:13:48;5.43;;;1.90;;
19804;SDS011;10062;51.052;13.756;2022-07-18T00:16:21;5.60;;;1.70;;
19804;SDS011;10062;51.052;13.756;2022-07-18T00:18:54;4.30;;;1.80;;
19804;SDS011;10062;51.052;13.756;2022-07-18T00:21:28;3.80;;;2.10;;
19804;SDS011;10062;51.052;13.756;2022-07-18T00:24:00;7.10;;;1.87;;
19804;SDS011;10062;51.052;13.756;2022-07-18T00:26:31;6.20;;;1.83;;
19804;SDS011;10062;51.052;13.756;2022-07-18T00:29:05;3.43;;;1.43;;
19804;SDS011;10062;51.052;13.756;2022-07-18T00:31:37;4.40;;;1.60;;
19804;SDS011;10062;51.052;13.756;2022-07-18T00:34:08;6.90;;;1.77;;
19804;SDS011;10062;51.052;13.756;2022-07-18T00:36:40;6.70;;;2.10;;
19804;SDS011;10062;51.052;13.756;2022-07-18T00:39:12;4.47;;;1.90;;
19804;SDS011;10062;51.052;13.756;2022-07-18T00:41:47;5.23;;;1.80;;
19804;SDS011;10062;51.052;13.756;2022-07-18T00:44:20;8.37;;;1.87;;
19804;SDS011;10062;51.052;13.756;2022-07-18T00:46:54;4.20;;;1.60;;
19804;SDS011;10062;51.052;13.756;2022-07-18T00:49:27;4.30;;;1.67;;
19804;SDS011;10062;51.052;13.756;2022-07-18T00:51:59;5.17;;;2.23;;
19804;SDS011;10062;51.052;13.756;2022-07-18T00:54:31;4.57;;;1.73;;
19804;SDS011;10062;51.052;13.756;2022-07-18T00:57:03;4.33;;;1.67;;
19804;SDS011;10062;51.052;13.756;2022-07-18T00:59:36;5.97;;;2.10;;
19804;SDS011;10062;51.052;13.756;2022-07-18T01:02:25;5.60;;;1.90;;
19804;SDS011;10062;51.052;13.756;2022-07-18T01:04:57;7.67;;;2.23;;
19804;SDS011;10062;51.052;13.756;2022-07-18T01:07:29;3.53;;;1.43;;
19804;SDS011;10062;51.052;13.756;2022-07-18T01:10:00;6.87;;;1.67;;
19804;SDS011;10062;51.052;13.756;2022-07-18T01:12:32;4.70;;;2.13;;
19804;SDS011;10062;51.052;13.756;2022-07-18T01:15:06;4.93;;;2.00;;
19804;SDS011;10062;51.052;13.756;2022-07-18T01:17:39;5.83;;;1.83;;
19804;SDS011;10062;51.052;13.756;2022-07-18T01:20:11;7.03;;;1.90;;
19804;SDS011;10062;51.052;13.756;2022-07-18T01:22:44;5.90;;;1.90;;
19804;SDS011;10062;51.052;13.756;2022-07-18T01:25:16;5.63;;;1.90;;
19804;SDS011;10062;51.052;13.756;2022-07-18T01:27:47;5.57;;;2.50;;
19804;SDS011;10062;51.052;13.756;2022-07-18T01:30:19;5.47;;;1.80;;
19804;SDS011;10062;51.052;13.756;2022-07-18T01:32:54;6.97;;;1.97;;
19804;SDS011;10062;51.052;13.756;2022-07-18T01:35:27;5.00;;;1.97;;
19804;SDS011;10062;51.052;13.756;2022-07-18T01:38:02;3.20;;;1.80;;
19804;SDS011;10062;51.052;13.756;2022-07-18T01:40:34;7.23;;;1.83;;
19804;SDS011;10062;51.052;13.756;2022-07-18T01:43:06;5.17;;;1.43;;
19804;SDS011;10062;51.052;13.756;2022-07-18T01:45:38;5.63;;;1.80;;
19804;SDS011;10062;51.052;13.756;2022-07-18T01:48:09;3.93;;;1.67;;
19804;SDS011;10062;51.052;13.756;2022-07-18T01:50:41;5.03;;;2.17;;
19804;SDS011;10062;51.052;13.756;2022-07-18T01:53:14;5.60;;;2.00;;
19804;SDS011;10062;51.052;13.756;2022-07-18T01:55:46;7.13;;;2.10;;
19804;SDS011;10062;51.052;13.756;2022-07-18T01:58:17;4.67;;;2.17;;
19804;SDS011;10062;51.052;13.756;2022-07-18T02:00:49;6.53;;;2.00;;
19804;SDS011;10062;51.052;13.756;2022-07-18T02:03:21;5.83;;;1.73;;
19804;SDS011;10062;51.052;13.756;2022-07-18T02:05:53;5.70;;;1.90;;
19804;SDS011;10062;51.052;13.756;2022-07-18T02:08:26;3.47;;;1.60;;
19804;SDS011;10062;51.052;13.756;2022-07-18T02:10:57;6.83;;;1.90;;
19804;SDS011;10062;51.052;13.756;2022-07-18T02:13:29;5.50;;;1.60;;
19804;SDS011;10062;51.052;13.756;2022-07-18T02:16:01;7.20;;;1.50;;
19804;SDS011;10062;51.052;13.756;2022-07-18T02:18:32;5.13;;;2.00;;
19804;SDS011;10062;51.052;13.756;2022-07-18T02:21:04;7.17;;;1.70;;
19804;SDS011;10062;51.052;13.756;2022-07-18T02:23:38;5.33;;;2.10;;
19804;SDS011;10062;51.052;13.756;2022-07-18T02:26:10;4.57;;;1.97;;
19804;SDS011;10062;51.052;13.756;2022-07-18T02:28:42;6.57;;;2.00;;
19804;SDS011;10062;51.052;13.756;2022-07-18T02:31:14;5.13;;;1.73;;
19804;SDS011;10062;51.052;13.756;2022-07-18T02:33:46;7.10;;;2.30;;
19804;SDS011;10062;51.052;13.756;2022-07-18T02:36:17;7.03;;;2.73;;
19804;SDS011;10062;51.052;13.756;2022-07-18T02:38:50;4.33;;;2.00;;
19804;SDS011;10062;51.052;13.756;2022-07-18T02:41:22;9.00;;;3.17;;
19804;SDS011;10062;51.052;13.756;2022-07-18T02:43:54;8.37;;;2.67;;
19804;SDS011;10062;51.052;13.756;2022-07-18T02:46:25;6.00;;;2.60;;
19804;SDS011;10062;51.052;13.756;2022-07-18T02:48:57;8.17;;;2.53;;
19804;SDS011;10062;51.052;13.756;2022-07-18T02:51:29;7.33;;;2.73;;
19804;SDS011;10062;51.052;13.756;2022-07-18T02:54:02;7.77;;;3.13;;
19804;SDS011;10062;51.052;13.756;2022-07-18T02:56:34;8.83;;;3.43;;
19804;SDS011;10062;51.052;13.756;2022-07-18T02:59:05;7.77;;;3.20;;
19804;SDS011;10062;51.052;13.756;2022-07-18T03:01:38;8.07;;;3.80;;
19804;SDS011;10062;51.052;13.756;2022-07-18T03:04:10;6.23;;;3.10;;
19804;SDS011;10062;51.052;13.756;2022-07-18T03:06:41;7.50;;;3.17;;
19804;SDS011;10062;51.052;13.756;2022-07-18T03:09:14;8.13;;;3.07;;
19804;SDS011;10062;51.052;13.756;2022-07-18T03:11:47;10.53;;;4.27;;
19804;SDS011;10062;51.052;13.756;2022-07-18T03:14:18;5.87;;;3.43;;
19804;SDS011;10062;51.052;13.756;2022-07-18T03:16:50;7.37;;;3.27;;
19804;SDS011;10062;51.052;13.756;2022-07-18T03:19:22;8.57;;;4.80;;
19804;SDS011;10062;51.052;13.756;2022-07-18T03:21:53;8.23;;;2.80;;
19804;SDS011;10062;51.052;13.756;2022-07-18T03:24:26;6.67;;;2.30;;
19804;SDS011;10062;51.052;13.756;2022-07-18T03:26:58;4.33;;;2.10;;
19804;SDS011;10062;51.052;13.756;2022-07-18T03:29:30;6.30;;;2.27;;
19804;SDS011;10062;51.052;13.756;2022-07-18T03:32:02;6.17;;;2.60;;
19804;SDS011;10062;51.052;13.756;2022-07-18T03:34:34;11.77;;;2.50;;
19804;SDS011;10062;51.052;13.756;2022-07-18T03:37:06;7.77;;;2.23;;
19804;SDS011;10062;51.052;13.756;2022-07-18T03:39:39;5.53;;;2.27;;
19804;SDS011;10062;51.052;13.756;2022-07-18T03:42:10;7.87;;;2.10;;
19804;SDS011;10062;51.052;13.756;2022-07-18T03:44:42;4.10;;;2.00;;
19804;SDS011;10062;51.052;13.756;2022-07-18T03:47:14;10.73;;;4.40;;
19804;SDS011;10062;51.052;13.756;2022-07-18T03:49:45;8.27;;;2.17;;
19804;SDS011;10062;51.052;13.756;2022-07-18T03:52:17;3.37;;;2.00;;
19804;SDS011;10062;51.052;13.756;2022-07-18T03:54:50;3.67;;;2.17;;
19804;SDS011;10062;51.052;13.756;2022-07-18T03:57:21;5.00;;;2.37;;
19804;SDS011;10062;51.052;13.756;2022-07-18T03:59:53;7.53;;;2.70;;
19804;SDS011;10062;51.052;13.756;2022-07-18T04:02:25;5.30;;;2.23;;
19804;SDS011;10062;51.052;13.756;2022-07-18T04:04:56;6.40;;;2.27;;
19804;SDS011;10062;51.052;13.756;2022-07-18T04:07:28;5.90;;;3.03;;
19804;SDS011;10062;51.052;13.756;2022-07-18T04:10:01;5.40;;;2.87;;
19804;SDS011;10062;51.052;13.756;2022-07-18T04:12:33;7.27;;;2.90;;
19804;SDS011;10062;51.052;13.756;2022-07-18T04:15:05;8.80;;;2.90;;
19804;SDS011;10062;51.052;13.756;2022-07-18T04:17:37;7.57;;;2.43;;
19804;SDS011;10062;51.052;13.756;2022-07-18T04:20:09;7.73;;;2.63;;
19804;SDS011;10062;51.052;13.756;2022-07-18T04:22:46;5.57;;;2.73;;
19804;SDS011;10062;51.052;13.756;2022-07-18T04:25:20;7.10;;;3.17;;
19804;SDS011;10062;51.052;13.756;2022-07-18T04:27:54;5.63;;;2.50;;
19804;SDS011;10062;51.052;13.756;2022-07-18T04:30:26;7.33;;;3.03;;
19804;SDS011;10062;51.052;13.756;2022-07-18T04:33:00;6.80;;;3.17;;
19804;SDS011;10062;51.052;13.756;2022-07-18T04:35:33;5.73;;;2.83;;
19804;SDS011;10062;51.052;13.756;2022-07-18T04:38:06;9.13;;;2.97;;
19804;SDS011;10062;51.052;13.756;2022-07-18T04:40:40;6.07;;;2.47;;
19804;SDS011;10062;51.052;13.756;2022-07-18T04:43:12;8.07;;;3.00;;
19804;SDS011;10062;51.052;13.756;2022-07-18T04:45:43;8.03;;;2.87;;
19804;SDS011;10062;51.052;13.756;2022-07-18T04:48:15;5.20;;;2.70;;
19804;SDS011;10062;51.052;13.756;2022-07-18T04:50:47;8.57;;;2.97;;
19804;SDS011;10062;51.052;13.756;2022-07-18T04:53:19;10.13;;;4.90;;
19804;SDS011;10062;51.052;13.756;2022-07-18T04:55:52;9.13;;;3.67;;
19804;SDS011;10062;51.052;13.756;2022-07-18T04:58:24;8.80;;;2.87;;
19804;SDS011;10062;51.052;13.756;2022-07-18T05:00:55;8.17;;;2.70;;
19804;SDS011;10062;51.052;13.756;2022-07-18T05:03:27;13.87;;;3.90;;
19804;SDS011;10062;51.052;13.756;2022-07-18T05:05:59;9.67;;;3.03;;
19804;SDS011;10062;51.052;13.756;2022-07-18T05:08:30;9.20;;;3.07;;
19804;SDS011;10062;51.052;13.756;2022-07-18T05:11:03;7.00;;;3.10;;
19804;SDS011;10062;51.052;13.756;2022-07-18T05:13:35;5.70;;;2.93;;
19804;SDS011;10062;51.052;13.756;2022-07-18T05:16:07;7.30;;;2.97;;
19804;SDS011;10062;51.052;13.756;2022-07-18T05:18:39;4.27;;;2.57;;
19804;SDS011;10062;51.052;13.756;2022-07-18T05:21:10;7.47;;;2.30;;
19804;SDS011;10062;51.052;13.756;2022-07-18T05:23:42;9.10;;;2.47;;
19804;SDS011;10062;51.052;13.756;2022-07-18T05:26:16;8.37;;;3.30;;
19804;SDS011;10062;51.052;13.756;2022-07-18T05:28:48;4.83;;;2.40;;
19804;SDS011;10062;51.052;13.756;2022-07-18T05:31:20;4.97;;;2.37;;
19804;SDS011;10062;51.052;13.756;2022-07-18T05:33:51;6.77;;;2.10;;
19804;SDS011;10062;51.052;13.756;2022-07-18T05:36:23;10.97;;;2.30;;
19804;SDS011;10062;51.052;13.756;2022-07-18T05:38:55;6.23;;;2.23;;
19804;SDS011;10062;51.052;13.756;2022-07-18T05:41:28;6.27;;;2.37;;
19804;SDS011;10062;51.052;13.756;2022-07-18T05:43:59;7.77;;;2.47;;
19804;SDS011;10062;51.052;13.756;2022-07-18T05:46:31;7.80;;;2.40;;
19804;SDS011;10062;51.052;13.756;2022-07-18T05:49:03;5.97;;;2.70;;
19804;SDS011;10062;51.052;13.756;2022-07-18T05:51:34;5.67;;;2.63;;
19804;SDS011;10062;51.052;13.756;2022-07-18T05:54:06;4.60;;;2.33;;
19804;SDS011;10062;51.052;13.756;2022-07-18T05:56:39;9.77;;;2.23;;
19804;SDS011;10062;51.052;13.756;2022-07-18T05:59:11;9.83;;;1.80;;
19804;SDS011;10062;51.052;13.756;2022-07-18T06:01:43;4.73;;;2.27;;
19804;SDS011;10062;51.052;13.756;2022-07-18T06:04:14;9.07;;;1.90;;
19804;SDS011;10062;51.052;13.756;2022-07-18T06:06:46;4.53;;;1.90;;
19804;SDS011;10062;51.052;13.756;2022-07-18T06:09:20;9.07;;;3.17;;
19804;SDS011;10062;51.052;13.756;2022-07-18T06:11:52;8.07;;;2.00;;
19804;SDS011;10062;51.052;13.756;2022-07-18T06:14:24;6.93;;;2.57;;
19804;SDS011;10062;51.052;13.756;2022-07-18T06:16:56;6.70;;;1.63;;
19804;SDS011;10062;51.052;13.756;2022-07-18T06:19:28;6.30;;;1.87;;
19804;SDS011;10062;51.052;13.756;2022-07-18T06:22:00;6.10;;;1.70;;
19804;SDS011;10062;51.052;13.756;2022-07-18T06:24:32;4.23;;;1.43;;
19804;SDS011;10062;51.052;13.756;2022-07-18T06:27:05;3.80;;;1.60;;
19804;SDS011;10062;51.052;13.756;2022-07-18T06:29:37;5.30;;;2.23;;
19804;SDS011;10062;51.052;13.756;2022-07-18T06:32:08;8.27;;;1.83;;
19804;SDS011;10062;51.052;13.756;2022-07-18T06:34:40;9.53;;;1.60;;
19804;SDS011;10062;51.052;13.756;2022-07-18T06:37:12;4.53;;;2.53;;
19804;SDS011;10062;51.052;13.756;2022-07-18T06:39:43;4.73;;;2.30;;
19804;SDS011;10062;51.052;13.756;2022-07-18T06:42:16;6.07;;;1.90;;
19804;SDS011;10062;51.052;13.756;2022-07-18T06:44:48;6.23;;;1.63;;
19804;SDS011;10062;51.052;13.756;2022-07-18T06:47:20;10.20;;;3.77;;
19804;SDS011;10062;51.052;13.756;2022-07-18T06:49:51;6.53;;;2.33;;
19804;SDS011;10062;51.052;13.756;2022-07-18T06:52:23;8.57;;;4.33;;
19804;SDS011;10062;51.052;13.756;2022-07-18T06:54:55;7.10;;;1.83;;
19804;SDS011;10062;51.052;13.756;2022-07-18T06:57:28;5.03;;;1.87;;
19804;SDS011;10062;51.052;13.756;2022-07-18T07:00:00;7.77;;;1.70;;
19804;SDS011;10062;51.052;13.756;2022-07-18T07:02:31;9.77;;;2.17;;
19804;SDS011;10062;51.052;13.756;2022-07-18T07:05:03;7.13;;;1.70;;
19804;SDS011;10062;51.052;13.756;2022-07-18T07:07:35;6.37;;;2.20;;
19804;SDS011;10062;51.052;13.756;2022-07-18T07:10:07;5.47;;;1.73;;
19804;SDS011;10062;51.052;13.756;2022-07-18T07:12:41;7.10;;;1.57;;
19804;SDS011;10062;51.052;13.756;2022-07-18T07:15:14;4.93;;;1.40;;
19804;SDS011;10062;51.052;13.756;2022-07-18T07:17:48;6.83;;;1.80;;
19804;SDS011;10062;51.052;13.756;2022-07-18T07:20:20;6.17;;;1.60;;
19804;SDS011;10062;51.052;13.756;2022-07-18T07:22:52;7.47;;;1.83;;
19804;SDS011;10062;51.052;13.756;2022-07-18T07:25:25;9.97;;;1.67;;
19804;SDS011;10062;51.052;13.756;2022-07-18T07:27:58;5.23;;;1.90;;
19804;SDS011;10062;51.052;13.756;2022-07-18T07:30:31;7.27;;;2.00;;
19804;SDS011;10062;51.052;13.756;2022-07-18T07:33:03;6.30;;;2.10;;
19804;SDS011;10062;51.052;13.756;2022-07-18T07:35:38;4.63;;;1.90;;
19804;SDS011;10062;51.052;13.756;2022-07-18T07:38:10;5.13;;;1.73;;
19804;SDS011;10062;51.052;13.756;2022-07-18T07:40:47;7.63;;;1.90;;
19804;SDS011;10062;51.052;13.756;2022-07-18T07:43:21;10.10;;;1.77;;
19804;SDS011;10062;51.052;13.756;2022-07-18T07:45:54;5.50;;;1.67;;
19804;SDS011;10062;51.052;13.756;2022-07-18T07:48:26;7.40;;;2.00;;
19804;SDS011;10062;51.052;13.756;2022-07-18T07:50:57;5.67;;;1.70;;
19804;SDS011;10062;51.052;13.756;2022-07-18T07:53:29;4.70;;;1.70;;
19804;SDS011;10062;51.052;13.756;2022-07-18T07:56:01;6.27;;;1.60;;
19804;SDS011;10062;51.052;13.756;2022-07-18T07:58:34;4.77;;;1.63;;
19804;SDS011;10062;51.052;13.756;2022-07-18T08:01:06;4.67;;;1.60;;
19804;SDS011;10062;51.052;13.756;2022-07-18T08:03:38;4.67;;;1.70;;
19804;SDS011;10062;51.052;13.756;2022-07-18T08:06:10;8.93;;;1.90;;
19804;SDS011;10062;51.052;13.756;2022-07-18T08:08:41;6.90;;;1.70;;
19804;SDS011;10062;51.052;13.756;2022-07-18T08:11:13;7.40;;;2.17;;
19804;SDS011;10062;51.052;13.756;2022-07-18T08:13:46;7.87;;;2.00;;
19804;SDS011;10062;51.052;13.756;2022-07-18T08:16:18;10.60;;;3.00;;
19804;SDS011;10062;51.052;13.756;2022-07-18T08:18:50;6.73;;;1.70;;
19804;SDS011;10062;51.052;13.756;2022-07-18T08:21:21;7.00;;;2.00;;
19804;SDS011;10062;51.052;13.756;2022-07-18T08:23:53;5.77;;;1.77;;
19804;SDS011;10062;51.052;13.756;2022-07-18T08:26:25;3.90;;;1.50;;
19804;SDS011;10062;51.052;13.756;2022-07-18T08:28:58;4.63;;;1.27;;
19804;SDS011;10062;51.052;13.756;2022-07-18T08:31:29;3.80;;;1.23;;
19804;SDS011;10062;51.052;13.756;2022-07-18T08:34:01;3.90;;;1.30;;
19804;SDS011;10062;51.052;13.756;2022-07-18T08:36:33;7.60;;;1.57;;
19804;SDS011;10062;51.052;13.756;2022-07-18T08:39:05;5.78;;;1.40;;
19804;SDS011;10062;51.052;13.756;2022-07-18T08:41:36;3.67;;;1.30;;
19804;SDS011;10062;51.052;13.756;2022-07-18T08:44:12;5.82;;;1.30;;
19804;SDS011;10062;51.052;13.756;2022-07-18T08:46:49;2.80;;;1.10;;
19804;SDS011;10062;51.052;13.756;2022-07-18T08:49:21;5.88;;;1.63;;
19804;SDS011;10062;51.052;13.756;2022-07-18T08:51:53;8.60;;;1.40;;
19804;SDS011;10062;51.052;13.756;2022-07-18T08:54:25;2.72;;;1.30;;
19804;SDS011;10062;51.052;13.756;2022-07-18T08:56:57;4.13;;;1.33;;
19804;SDS011;10062;51.052;13.756;2022-07-18T08:59:31;3.88;;;1.50;;
19804;SDS011;10062;51.052;13.756;2022-07-18T09:02:02;9.70;;;2.10;;
19804;SDS011;10062;51.052;13.756;2022-07-18T09:04:34;8.18;;;1.50;;
19804;SDS011;10062;51.052;13.756;2022-07-18T09:07:07;4.05;;;1.15;;
19804;SDS011;10062;51.052;13.756;2022-07-18T09:09:40;8.32;;;1.60;;
19804;SDS011;10062;51.052;13.756;2022-07-18T09:12:24;4.00;;;1.40;;
19804;SDS011;10062;51.052;13.756;2022-07-18T09:14:57;7.28;;;1.58;;
19804;SDS011;10062;51.052;13.756;2022-07-18T09:17:35;4.22;;;1.83;;
19804;SDS011;10062;51.052;13.756;2022-07-18T09:20:09;4.22;;;1.30;;
19804;SDS011;10062;51.052;13.756;2022-07-18T09:22:44;6.57;;;1.58;;
19804;SDS011;10062;51.052;13.756;2022-07-18T09:25:19;5.43;;;1.30;;
19804;SDS011;10062;51.052;13.756;2022-07-18T09:27:54;3.53;;;1.40;;
19804;SDS011;10062;51.052;13.756;2022-07-18T09:30:28;5.97;;;1.15;;
19804;SDS011;10062;51.052;13.756;2022-07-18T09:33:06;4.85;;;1.40;;
19804;SDS011;10062;51.052;13.756;2022-07-18T09:35:42;4.50;;;1.42;;
19804;SDS011;10062;51.052;13.756;2022-07-18T09:38:15;5.22;;;1.63;;
19804;SDS011;10062;51.052;13.756;2022-07-18T09:40:51;4.53;;;1.33;;
19804;SDS011;10062;51.052;13.756;2022-07-18T09:43:24;3.45;;;1.17;;
19804;SDS011;10062;51.052;13.756;2022-07-18T09:45:59;7.18;;;1.40;;
19804;SDS011;10062;51.052;13.756;2022-07-18T09:48:36;7.28;;;1.60;;
19804;SDS011;10062;51.052;13.756;2022-07-18T09:51:07;7.13;;;1.60;;
19804;SDS011;10062;51.052;13.756;2022-07-18T09:53:41;3.13;;;1.02;;
19804;SDS011;10062;51.052;13.756;2022-07-18T09:56:22;5.25;;;1.40;;
19804;SDS011;10062;51.052;13.756;2022-07-18T09:58:55;4.60;;;1.45;;
19804;SDS011;10062;51.052;13.756;2022-07-18T10:01:28;5.32;;;1.52;;
19804;SDS011;10062;51.052;13.756;2022-07-18T10:04:01;6.43;;;1.50;;
19804;SDS011;10062;51.052;13.756;2022-07-18T10:06:33;6.85;;;1.30;;
19804;SDS011;10062;51.052;13.756;2022-07-18T10:09:05;5.03;;;1.80;;
19804;SDS011;10062;51.052;13.756;2022-07-18T10:11:37;4.32;;;1.42;;
19804;SDS011;10062;51.052;13.756;2022-07-18T10:14:09;3.08;;;1.52;;
19804;SDS011;10062;51.052;13.756;2022-07-18T10:16:44;4.07;;;1.40;;
19804;SDS011;10062;51.052;13.756;2022-07-18T10:19:16;3.28;;;1.27;;
19804;SDS011;10062;51.052;13.756;2022-07-18T10:21:48;4.25;;;1.10;;
19804;SDS011;10062;51.052;13.756;2022-07-18T10:24:20;5.10;;;1.27;;
19804;SDS011;10062;51.052;13.756;2022-07-18T10:27:11;4.53;;;1.30;;
19804;SDS011;10062;51.052;13.756;2022-07-18T10:32:42;2.85;;;1.40;;
19804;SDS011;10062;51.052;13.756;2022-07-18T10:35:15;4.53;;;1.42;;
19804;SDS011;10062;51.052;13.756;2022-07-18T10:37:47;5.95;;;1.38;;
19804;SDS011;10062;51.052;13.756;2022-07-18T10:40:25;5.05;;;1.45;;
19804;SDS011;10062;51.052;13.756;2022-07-18T10:46:24;3.92;;;1.63;;
19804;SDS011;10062;51.052;13.756;2022-07-18T10:48:57;4.05;;;1.40;;
19804;SDS011;10062;51.052;13.756;2022-07-18T10:51:29;7.57;;;1.90;;
19804;SDS011;10062;51.052;13.756;2022-07-18T10:54:08;5.32;;;1.45;;
19804;SDS011;10062;51.052;13.756;2022-07-18T10:59:36;5.88;;;1.67;;
19804;SDS011;10062;51.052;13.756;2022-07-18T11:02:09;3.13;;;1.25;;
19804;SDS011;10062;51.052;13.756;2022-07-18T11:04:42;5.45;;;1.77;;
19804;SDS011;10062;51.052;13.756;2022-07-18T11:07:14;4.05;;;1.58;;
19804;SDS011;10062;51.052;13.756;2022-07-18T11:09:47;5.53;;;1.40;;
19804;SDS011;10062;51.052;13.756;2022-07-18T11:12:24;4.78;;;1.80;;
19804;SDS011;10062;51.052;13.756;2022-07-18T11:15:05;5.32;;;1.70;;
19804;SDS011;10062;51.052;13.756;2022-07-18T11:18:01;3.75;;;1.40;;
19804;SDS011;10062;51.052;13.756;2022-07-18T11:20:36;3.45;;;1.27;;
19804;SDS011;10062;51.052;13.756;2022-07-18T11:23:14;5.53;;;2.00;;
19804;SDS011;10062;51.052;13.756;2022-07-18T11:25:51;5.07;;;1.58;;
19804;SDS011;10062;51.052;13.756;2022-07-18T11:28:25;3.97;;;1.50;;
19804;SDS011;10062;51.052;13.756;2022-07-18T11:31:01;4.88;;;1.40;;
19804;SDS011;10062;51.052;13.756;2022-07-18T11:33:35;3.47;;;1.50;;
19804;SDS011;10062;51.052;13.756;2022-07-18T11:36:10;3.63;;;1.27;;
19804;SDS011;10062;51.052;13.756;2022-07-18T11:38:45;5.22;;;1.60;;
19804;SDS011;10062;51.052;13.756;2022-07-18T11:41:18;5.63;;;2.15;;
19804;SDS011;10062;51.052;13.756;2022-07-18T11:43:53;5.95;;;1.52;;
19804;SDS011;10062;51.052;13.756;2022-07-18T11:46:26;5.43;;;1.45;;
19804;SDS011;10062;51.052;13.756;2022-07-18T11:49:01;4.38;;;1.40;;
19804;SDS011;10062;51.052;13.756;2022-07-18T11:51:35;5.10;;;1.40;;
19804;SDS011;10062;51.052;13.756;2022-07-18T11:54:10;7.10;;;1.55;;
19804;SDS011;10062;51.052;13.756;2022-07-18T11:56:46;3.67;;;1.80;;
19804;SDS011;10062;51.052;13.756;2022-07-18T11:59:18;6.22;;;1.83;;
19804;SDS011;10062;51.052;13.756;2022-07-18T12:01:51;4.88;;;1.98;;
19804;SDS011;10062;51.052;13.756;2022-07-18T12:04:23;3.95;;;1.60;;
19804;SDS011;10062;51.052;13.756;2022-07-18T12:07:16;4.28;;;1.60;;
19804;SDS011;10062;51.052;13.756;2022-07-18T12:09:51;7.82;;;1.70;;
19804;SDS011;10062;51.052;13.756;2022-07-18T12:12:23;4.47;;;2.38;;
19804;SDS011;10062;51.052;13.756;2022-07-18T12:14:55;5.55;;;1.73;;
19804;SDS011;10062;51.052;13.756;2022-07-18T12:17:29;5.18;;;1.70;;
19804;SDS011;10062;51.052;13.756;2022-07-18T12:20:08;3.28;;;1.40;;
19804;SDS011;10062;51.052;13.756;2022-07-18T12:25:56;6.45;;;1.45;;
19804;SDS011;10062;51.052;13.756;2022-07-18T12:28:30;3.47;;;1.48;;
19804;SDS011;10062;51.052;13.756;2022-07-18T12:31:02;3.58;;;1.67;;
19804;SDS011;10062;51.052;13.756;2022-07-18T12:33:34;8.25;;;1.58;;
19804;SDS011;10062;51.052;13.756;2022-07-18T12:36:06;4.53;;;1.80;;
19804;SDS011;10062;51.052;13.756;2022-07-18T12:38:40;8.68;;;1.90;;
19804;SDS011;10062;51.052;13.756;2022-07-18T12:41:11;6.22;;;1.42;;
19804;SDS011;10062;51.052;13.756;2022-07-18T12:43:43;5.00;;;1.90;;
19804;SDS011;10062;51.052;13.756;2022-07-18T12:46:15;3.65;;;1.50;;
19804;SDS011;10062;51.052;13.756;2022-07-18T12:48:46;5.90;;;1.52;;
19804;SDS011;10062;51.052;13.756;2022-07-18T12:51:18;6.65;;;1.80;;
19804;SDS011;10062;51.052;13.756;2022-07-18T12:53:51;4.43;;;1.70;;
19804;SDS011;10062;51.052;13.756;2022-07-18T12:56:22;5.78;;;1.70;;
19804;SDS011;10062;51.052;13.756;2022-07-18T12:58:54;8.75;;;2.00;;
19804;SDS011;10062;51.052;13.756;2022-07-18T13:01:26;3.75;;;1.52;;
19804;SDS011;10062;51.052;13.756;2022-07-18T13:03:57;2.97;;;1.40;;
19804;SDS011;10062;51.052;13.756;2022-07-18T13:06:29;4.85;;;1.23;;
19804;SDS011;10062;51.052;13.756;2022-07-18T13:09:02;4.88;;;1.85;;
19804;SDS011;10062;51.052;13.756;2022-07-18T13:11:34;6.43;;;1.48;;
19804;SDS011;10062;51.052;13.756;2022-07-18T13:14:05;4.78;;;2.05;;
19804;SDS011;10062;51.052;13.756;2022-07-18T13:16:37;4.75;;;1.42;;
19804;SDS011;10062;51.052;13.756;2022-07-18T13:19:09;9.75;;;1.85;;
19804;SDS011;10062;51.052;13.756;2022-07-18T13:21:40;7.78;;;1.90;;
19804;SDS011;10062;51.052;13.756;2022-07-18T13:24:14;6.35;;;1.98;;
19804;SDS011;10062;51.052;13.756;2022-07-18T13:26:46;3.70;;;1.52;;
19804;SDS011;10062;51.052;13.756;2022-07-18T13:29:18;5.10;;;1.38;;
19804;SDS011;10062;51.052;13.756;2022-07-18T13:31:49;4.47;;;1.67;;
19804;SDS011;10062;51.052;13.756;2022-07-18T13:34:21;3.83;;;1.55;;
19804;SDS011;10062;51.052;13.756;2022-07-18T13:36:53;4.60;;;1.60;;
19804;SDS011;10062;51.052;13.756;2022-07-18T13:39:26;5.65;;;2.17;;
19804;SDS011;10062;51.052;13.756;2022-07-18T13:41:58;15.25;;;3.30;;
19804;SDS011;10062;51.052;13.756;2022-07-18T13:44:32;2.67;;;1.45;;
19804;SDS011;10062;51.052;13.756;2022-07-18T13:47:04;3.63;;;1.33;;
19804;SDS011;10062;51.052;13.756;2022-07-18T13:49:35;5.63;;;1.80;;
19804;SDS011;10062;51.052;13.756;2022-07-18T13:52:07;9.25;;;2.90;;
19804;SDS011;10062;51.052;13.756;2022-07-18T13:54:40;4.18;;;1.90;;
19804;SDS011;10062;51.052;13.756;2022-07-18T13:57:12;4.80;;;1.50;;
19804;SDS011;10062;51.052;13.756;2022-07-18T13:59:44;4.28;;;1.60;;
19804;SDS011;10062;51.052;13.756;2022-07-18T14:02:15;2.38;;;1.15;;
19804;SDS011;10062;51.052;13.756;2022-07-18T14:04:47;6.57;;;1.92;;
19804;SDS011;10062;51.052;13.756;2022-07-18T14:07:19;3.35;;;1.52;;
19804;SDS011;10062;51.052;13.756;2022-07-18T14:09:52;6.70;;;2.10;;
19804;SDS011;10062;51.052;13.756;2022-07-18T14:12:24;2.72;;;1.40;;
19804;SDS011;10062;51.052;13.756;2022-07-18T14:14:56;4.70;;;1.55;;
19804;SDS011;10062;51.052;13.756;2022-07-18T14:17:27;4.07;;;1.70;;
19804;SDS011;10062;51.052;13.756;2022-07-18T14:20:00;3.40;;;1.90;;
19804;SDS011;10062;51.052;13.756;2022-07-18T14:22:32;6.95;;;1.75;;
19804;SDS011;10062;51.052;13.756;2022-07-18T14:25:06;4.00;;;1.70;;
19804;SDS011;10062;51.052;13.756;2022-07-18T14:27:40;6.45;;;1.50;;
19804;SDS011;10062;51.052;13.756;2022-07-18T14:30:12;6.80;;;1.83;;
19804;SDS011;10062;51.052;13.756;2022-07-18T14:32:47;6.32;;;1.73;;
19804;SDS011;10062;51.052;13.756;2022-07-18T14:35:18;6.07;;;1.70;;
19804;SDS011;10062;51.052;13.756;2022-07-18T14:37:50;5.68;;;1.90;;
19804;SDS011;10062;51.052;13.756;2022-07-18T14:40:23;11.93;;;2.90;;
19804;SDS011;10062;51.052;13.756;2022-07-18T14:42:55;4.50;;;1.65;;
19804;SDS011;10062;51.052;13.756;2022-07-18T14:45:27;4.68;;;1.80;;
19804;SDS011;10062;51.052;13.756;2022-07-18T14:47:58;5.68;;;1.90;;
19804;SDS011;10062;51.052;13.756;2022-07-18T14:50:30;3.95;;;1.95;;
19804;SDS011;10062;51.052;13.756;2022-07-18T14:53:02;3.53;;;1.50;;
19804;SDS011;10062;51.052;13.756;2022-07-18T14:55:35;8.25;;;1.85;;
19804;SDS011;10062;51.052;13.756;2022-07-18T14:58:07;4.30;;;1.40;;
19804;SDS011;10062;51.052;13.756;2022-07-18T15:00:38;5.05;;;1.48;;
19804;SDS011;10062;51.052;13.756;2022-07-18T15:03:10;4.05;;;1.40;;
19804;SDS011;10062;51.052;13.756;2022-07-18T15:05:42;5.35;;;1.70;;
19804;SDS011;10062;51.052;13.756;2022-07-18T15:08:13;3.42;;;1.40;;
19804;SDS011;10062;51.052;13.756;2022-07-18T15:10:46;4.53;;;1.40;;
19804;SDS011;10062;51.052;13.756;2022-07-18T15:13:18;3.28;;;1.23;;
19804;SDS011;10062;51.052;13.756;2022-07-18T15:15:49;7.18;;;1.88;;
19804;SDS011;10062;51.052;13.756;2022-07-18T15:18:22;5.85;;;1.60;;